Time;durP1;ratioP1;P1;durP2;ratioP2;P2;SDS_P1;SDS_P2;PMS_P1;PMS_P2;Temp;Humidity;BMP_temperature;BMP_pressure;BME280_temperature;BME280_humidity;BME280_pressure;Samples;Min_cycle;Max_cycle;Signal;HPM_P1;HPM_P2
2023/01/09 00:00:22;;;;;;;7.07;2.05;;;6.80;99.90;;;;;;5053893;28;20135;-84
2023/01/09 00:02:48;;;;;;;5.40;2.00;;;6.90;99.90;;;;;;5049259;28;20387;-84
2023/01/09 00:05:15;;;;;;;3.40;1.92;;;6.90;99.90;;;;;;5044976;28;20091;-85
2023/01/09 00:07:41;;;;;;;4.00;2.17;;;6.90;99.90;;;;;;5047210;28;20120;-84
2023/01/09 00:10:08;;;;;;;3.97;1.88;;;7.00;99.90;;;;;;5052759;28;20029;-82
2023/01/09 00:12:34;;;;;;;5.97;1.80;;;6.90;99.90;;;;;;5050924;28;20043;-82
2023/01/09 00:15:00;;;;;;;6.32;2.15;;;7.00;99.90;;;;;;5054527;28;20029;-84
2023/01/09 00:17:26;;;;;;;3.30;1.60;;;7.00;99.90;;;;;;5056831;28;20437;-83
2023/01/09 00:19:51;;;;;;;6.95;1.70;;;6.90;99.90;;;;;;5053073;28;20100;-83
2023/01/09 00:22:17;;;;;;;4.47;1.40;;;6.80;99.90;;;;;;5053740;28;20114;-83
2023/01/09 00:24:42;;;;;;;3.17;1.33;;;6.80;99.90;;;;;;5054822;28;20043;-82
2023/01/09 00:27:08;;;;;;;3.15;1.02;;;6.80;99.90;;;;;;5056631;28;20037;-83
2023/01/09 00:29:33;;;;;;;2.05;0.90;;;6.80;99.90;;;;;;5052859;28;20040;-82
2023/01/09 00:31:59;;;;;;;3.38;1.20;;;6.70;99.90;;;;;;5050550;28;20037;-82
2023/01/09 00:34:25;;;;;;;3.90;0.98;;;6.70;99.90;;;;;;5054993;28;20041;-82
2023/01/09 00:36:54;;;;;;;2.65;0.77;;;6.60;99.90;;;;;;5052766;28;20041;-82
2023/01/09 00:39:20;;;;;;;1.73;0.63;;;6.60;99.90;;;;;;5054387;28;20041;-84
2023/01/09 00:41:50;;;;;;;1.77;0.60;;;6.60;99.90;;;;;;5055336;28;20056;-82
2023/01/09 00:44:26;;;;;;;1.00;0.68;;;6.60;99.90;;;;;;5055223;28;20048;-83
2023/01/09 00:46:57;;;;;;;1.65;0.70;;;6.50;99.90;;;;;;5051248;28;20045;-83
2023/01/09 00:49:23;;;;;;;2.05;0.50;;;6.40;99.90;;;;;;5053515;28;20047;-83
2023/01/09 00:51:48;;;;;;;2.15;0.70;;;6.40;99.90;;;;;;5052939;28;20414;-83
2023/01/09 00:54:17;;;;;;;1.05;0.70;;;6.40;99.90;;;;;;5053682;28;20045;-83
2023/01/09 00:56:42;;;;;;;1.52;0.70;;;6.30;99.90;;;;;;5037905;28;20111;-83
2023/01/09 00:59:08;;;;;;;1.75;0.93;;;6.30;99.90;;;;;;5055110;28;20074;-83
2023/01/09 01:01:34;;;;;;;1.38;0.55;;;6.30;99.90;;;;;;5049038;28;20055;-83
2023/01/09 01:07:37;;;;;;;2.20;0.50;;;6.20;99.90;;;;;;5049538;28;20037;-83
2023/01/09 01:09:36;;;;;;;3.90;0.40;;;6.20;99.90;;;;;;5041442;28;20068;-83
2023/01/09 01:12:05;;;;;;;0.98;0.70;;;6.20;99.90;;;;;;5039451;28;20037;-83
2023/01/09 01:14:36;;;;;;;0.85;0.40;;;6.10;99.90;;;;;;5055421;28;20063;-83
2023/01/09 01:17:03;;;;;;;0.85;0.40;;;6.10;99.90;;;;;;5043544;28;20181;-84
2023/01/09 01:19:29;;;;;;;1.85;0.50;;;6.00;99.90;;;;;;5054419;28;20033;-83
2023/01/09 01:21:55;;;;;;;0.90;0.43;;;6.00;99.90;;;;;;5034093;28;20048;-83
2023/01/09 01:24:20;;;;;;;1.25;0.50;;;6.00;99.90;;;;;;5055051;28;20507;-83
2023/01/09 01:26:46;;;;;;;1.33;0.60;;;6.00;99.90;;;;;;5033618;28;20039;-83
2023/01/09 01:29:12;;;;;;;2.22;0.90;;;6.00;99.90;;;;;;5044016;28;20048;-84
2023/01/09 01:31:38;;;;;;;1.85;0.70;;;6.00;99.90;;;;;;5053888;28;20036;-83
2023/01/09 01:34:03;;;;;;;1.40;0.80;;;6.00;99.90;;;;;;5048588;28;20029;-84
2023/01/09 01:36:29;;;;;;;1.10;0.75;;;6.00;99.90;;;;;;5049745;28;20032;-83
2023/01/09 01:38:54;;;;;;;3.08;1.00;;;6.10;99.90;;;;;;5049199;28;20049;-83
2023/01/09 01:41:28;;;;;;;2.05;1.00;;;6.00;99.90;;;;;;5051449;28;20029;-84
2023/01/09 01:44:38;;;;;;;3.30;1.33;;;6.10;99.90;;;;;;5056288;28;20102;-84
2023/01/09 01:47:03;;;;;;;3.20;1.23;;;6.10;99.90;;;;;;5032795;28;20045;-84
2023/01/09 01:49:29;;;;;;;3.15;1.38;;;6.20;99.90;;;;;;5053532;28;20036;-84
2023/01/09 01:51:55;;;;;;;3.38;1.35;;;6.20;99.90;;;;;;5056401;28;20048;-83
2023/01/09 01:54:25;;;;;;;3.08;1.48;;;6.20;99.90;;;;;;5034678;28;20053;-84
2023/01/09 01:56:58;;;;;;;3.75;1.60;;;6.30;99.90;;;;;;5032819;28;20030;-84
2023/01/09 01:59:33;;;;;;;4.05;1.40;;;6.30;99.90;;;;;;5051650;28;20041;-84
2023/01/09 02:02:00;;;;;;;3.58;1.40;;;6.30;99.90;;;;;;5037553;28;20051;-84
2023/01/09 02:04:29;;;;;;;3.38;1.75;;;6.40;99.90;;;;;;5038810;28;20238;-83
2023/01/09 02:06:55;;;;;;;4.38;1.60;;;6.40;99.90;;;;;;5055837;28;20049;-84
2023/01/09 02:09:22;;;;;;;4.70;1.65;;;6.40;99.90;;;;;;5037188;28;20037;-84
2023/01/09 02:11:53;;;;;;;3.28;1.80;;;6.40;99.90;;;;;;5053877;28;20120;-83
2023/01/09 02:14:21;;;;;;;4.70;1.90;;;6.40;99.90;;;;;;5053823;28;20064;-84
2023/01/09 02:17:09;;;;;;;4.47;1.60;;;6.40;99.90;;;;;;5055171;28;20125;-84
2023/01/09 02:19:43;;;;;;;1.80;1.40;;;6.30;99.90;;;;;;5055155;28;20045;-84
2023/01/09 02:22:30;;;;;;;4.72;1.83;;;6.30;99.90;;;;;;5025135;28;20041;-84
2023/01/09 02:25:23;;;;;;;3.97;1.42;;;6.20;99.90;;;;;;5045261;28;20124;-84
2023/01/09 02:28:20;;;;;;;3.53;1.70;;;6.20;99.90;;;;;;5046157;28;20052;-84
2023/01/09 02:30:51;;;;;;;7.90;2.10;;;6.10;99.90;;;;;;5055512;28;20490;-83
2023/01/09 02:33:38;;;;;;;5.80;2.38;;;6.10;99.90;;;;;;5052396;28;20298;-84
2023/01/09 02:36:22;;;;;;;7.38;2.30;;;6.10;99.90;;;;;;5036999;28;20105;-84
2023/01/09 02:39:10;;;;;;;3.03;1.73;;;6.10;99.90;;;;;;5032963;28;20041;-84
2023/01/09 02:41:54;;;;;;;4.47;1.90;;;6.00;99.90;;;;;;5037067;28;20410;-84
2023/01/09 02:44:25;;;;;;;2.92;1.67;;;6.00;99.90;;;;;;5052186;28;20041;-82
2023/01/09 02:47:04;;;;;;;6.25;1.90;;;6.00;99.90;;;;;;5034397;28;20037;-85
2023/01/09 02:49:35;;;;;;;3.88;1.88;;;5.90;99.90;;;;;;5068292;28;20198;-84
2023/01/09 02:52:26;;;;;;;5.50;2.00;;;5.90;99.90;;;;;;5040231;28;20120;-85
2023/01/09 02:54:58;;;;;;;5.28;1.88;;;5.90;99.90;;;;;;5033395;28;20045;-84
2023/01/09 02:57:47;;;;;;;8.02;2.05;;;5.80;99.90;;;;;;5051271;28;20126;-84
2023/01/09 03:00:36;;;;;;;6.47;2.03;;;5.80;99.90;;;;;;5055682;28;20041;-84
2023/01/09 03:03:08;;;;;;;5.82;2.25;;;5.80;99.90;;;;;;5041044;28;20029;-84
2023/01/09 03:05:44;;;;;;;7.35;2.30;;;5.70;99.90;;;;;;5035250;28;20044;-84
2023/01/09 03:08:21;;;;;;;8.45;2.05;;;5.70;99.90;;;;;;5054516;28;20049;-84
2023/01/09 03:10:54;;;;;;;2.92;1.80;;;5.70;99.90;;;;;;5039418;28;20040;-84
2023/01/09 03:13:23;;;;;;;4.72;2.10;;;5.60;99.90;;;;;;5054296;28;20041;-84
2023/01/09 03:15:51;;;;;;;5.53;2.13;;;5.70;99.90;;;;;;5035403;28;20075;-84
2023/01/09 03:18:21;;;;;;;5.15;2.40;;;5.60;99.90;;;;;;5035067;28;20064;-84
2023/01/09 03:20:46;;;;;;;5.38;2.25;;;5.60;99.90;;;;;;5036078;28;20041;-84
2023/01/09 03:23:12;;;;;;;6.57;2.28;;;5.50;99.90;;;;;;5046370;28;20067;-84
2023/01/09 03:25:38;;;;;;;5.82;2.42;;;5.50;99.90;;;;;;5053997;28;20032;-85
2023/01/09 03:28:06;;;;;;;5.88;2.10;;;5.50;99.90;;;;;;5048886;28;20495;-84
2023/01/09 03:30:33;;;;;;;4.40;2.00;;;5.50;99.90;;;;;;5055816;28;20120;-85
2023/01/09 03:32:59;;;;;;;6.45;2.47;;;5.40;99.90;;;;;;5054324;28;20033;-84
2023/01/09 03:35:25;;;;;;;5.15;2.35;;;5.50;99.90;;;;;;5055939;28;20411;-84
2023/01/09 03:37:50;;;;;;;6.90;2.20;;;5.40;99.90;;;;;;5055479;28;20461;-84
2023/01/09 03:40:17;;;;;;;5.03;2.13;;;5.30;99.90;;;;;;5054489;28;20133;-82
2023/01/09 03:42:43;;;;;;;5.03;2.30;;;5.40;99.90;;;;;;5050661;28;20059;-85
2023/01/09 03:45:09;;;;;;;2.83;1.90;;;5.40;99.90;;;;;;5054547;28;20045;-84
2023/01/09 03:47:34;;;;;;;6.30;2.40;;;5.30;99.90;;;;;;5053232;28;20047;-85
2023/01/09 03:50:00;;;;;;;6.32;2.17;;;5.30;99.90;;;;;;5054450;28;20028;-85
2023/01/09 03:52:25;;;;;;;6.63;2.47;;;5.40;99.90;;;;;;5054641;28;20098;-84
2023/01/09 03:54:51;;;;;;;7.63;2.60;;;5.30;99.90;;;;;;5054813;28;20045;-84
2023/01/09 03:57:16;;;;;;;6.30;2.90;;;5.20;99.90;;;;;;5048433;28;20042;-84
2023/01/09 03:59:43;;;;;;;7.18;2.58;;;5.20;99.90;;;;;;5047977;28;20045;-84
2023/01/09 04:02:08;;;;;;;5.10;2.88;;;5.20;99.90;;;;;;5056017;28;20061;-84
2023/01/09 04:04:34;;;;;;;5.90;2.88;;;5.20;99.90;;;;;;5054868;28;20116;-84
2023/01/09 04:06:59;;;;;;;13.82;3.17;;;5.20;99.90;;;;;;5055332;28;20441;-84
2023/01/09 04:09:25;;;;;;;7.15;3.25;;;5.10;99.90;;;;;;5048879;28;20063;-84
2023/01/09 04:11:51;;;;;;;6.22;3.10;;;5.10;99.90;;;;;;5048752;28;20034;-84
2023/01/09 04:14:16;;;;;;;9.27;3.85;;;5.10;99.90;;;;;;5048435;28;20033;-84
2023/01/09 04:16:42;;;;;;;5.22;3.38;;;5.10;99.90;;;;;;5052103;28;20491;-84
2023/01/09 04:19:07;;;;;;;7.65;3.63;;;5.00;99.90;;;;;;5055551;28;20045;-84
2023/01/09 04:21:33;;;;;;;10.70;3.50;;;5.00;99.90;;;;;;5054642;28;20119;-85
2023/01/09 04:23:58;;;;;;;7.75;3.65;;;5.10;99.90;;;;;;5036697;28;20116;-84
2023/01/09 04:26:24;;;;;;;7.88;3.67;;;5.00;99.90;;;;;;5046986;28;20087;-83
2023/01/09 04:28:49;;;;;;;9.00;3.78;;;5.00;99.90;;;;;;5054591;28;20037;-84
2023/01/09 04:31:15;;;;;;;10.18;4.10;;;5.00;99.90;;;;;;5054746;28;20048;-85
2023/01/09 04:33:40;;;;;;;5.80;3.42;;;4.90;99.90;;;;;;5049066;28;20057;-84
2023/01/09 04:36:07;;;;;;;9.27;3.22;;;4.90;99.90;;;;;;5036481;28;20426;-84
2023/01/09 04:38:32;;;;;;;7.35;3.45;;;4.90;99.90;;;;;;5054950;28;20075;-85
2023/01/09 04:40:58;;;;;;;7.30;4.07;;;4.90;99.90;;;;;;5053537;28;20036;-84
2023/01/09 04:43:23;;;;;;;8.23;3.97;;;4.80;99.90;;;;;;5037798;28;20041;-85
2023/01/09 04:45:49;;;;;;;7.63;4.00;;;4.80;99.90;;;;;;5047645;28;20049;-85
2023/01/09 04:48:15;;;;;;;9.68;4.38;;;4.80;99.90;;;;;;5031709;28;20053;-84
2023/01/09 04:50:40;;;;;;;11.73;4.90;;;4.80;99.90;;;;;;5032309;28;20046;-84
2023/01/09 04:53:06;;;;;;;7.63;4.43;;;4.80;99.90;;;;;;5041734;28;20032;-84
2023/01/09 04:55:32;;;;;;;12.57;4.85;;;4.80;99.90;;;;;;5047470;28;20040;-84
2023/01/09 04:57:58;;;;;;;11.73;5.22;;;4.70;99.90;;;;;;5054589;28;20072;-84
2023/01/09 05:00:23;;;;;;;9.35;5.13;;;4.80;99.90;;;;;;5055213;28;20042;-84
2023/01/09 05:02:49;;;;;;;9.15;4.72;;;4.70;99.90;;;;;;5054994;28;20418;-84
2023/01/09 05:05:14;;;;;;;11.73;5.35;;;4.70;99.90;;;;;;5054628;28;20119;-83
2023/01/09 05:07:40;;;;;;;15.95;5.95;;;4.70;99.90;;;;;;5053854;28;20521;-84
2023/01/09 05:10:07;;;;;;;9.80;5.90;;;4.70;99.90;;;;;;5054365;28;20088;-83
2023/01/09 05:12:36;;;;;;;10.30;6.65;;;4.70;99.90;;;;;;5053815;28;20063;-83
2023/01/09 05:15:03;;;;;;;10.40;6.63;;;4.70;99.90;;;;;;5055475;28;20040;-83
2023/01/09 05:17:28;;;;;;;11.90;6.40;;;4.70;99.90;;;;;;5030847;28;20038;-84
2023/01/09 05:19:54;;;;;;;11.55;6.90;;;4.70;99.90;;;;;;5035297;28;20047;-83
2023/01/09 05:22:19;;;;;;;11.10;6.63;;;4.70;99.90;;;;;;5033780;28;20081;-84
2023/01/09 05:24:45;;;;;;;13.57;7.18;;;4.70;99.90;;;;;;5020210;28;20491;-84
2023/01/09 05:27:11;;;;;;;11.55;7.43;;;4.80;99.90;;;;;;5055570;28;20037;-84
2023/01/09 05:29:36;;;;;;;12.75;7.78;;;4.80;99.90;;;;;;5055819;28;20037;-84
2023/01/09 05:32:02;;;;;;;15.48;9.02;;;4.80;99.90;;;;;;5046249;28;20073;-83
2023/01/09 05:34:28;;;;;;;16.95;9.60;;;4.80;99.90;;;;;;5045735;28;20394;-84
2023/01/09 05:36:53;;;;;;;16.15;9.70;;;4.90;99.90;;;;;;5050611;28;20041;-83
2023/01/09 05:39:19;;;;;;;18.90;10.30;;;4.90;99.90;;;;;;5043749;28;20069;-83
2023/01/09 05:41:45;;;;;;;18.75;10.57;;;5.00;99.90;;;;;;5043540;28;20044;-84
2023/01/09 05:44:10;;;;;;;17.40;11.02;;;5.10;99.90;;;;;;5047169;28;20057;-84
2023/01/09 05:46:36;;;;;;;18.67;11.13;;;5.10;99.90;;;;;;5053264;28;20544;-84
2023/01/09 05:49:01;;;;;;;19.58;12.57;;;5.20;99.90;;;;;;5053391;28;20541;-83
2023/01/09 05:51:27;;;;;;;20.20;11.75;;;5.10;99.90;;;;;;5031788;28;20055;-84
2023/01/09 05:53:52;;;;;;;19.33;11.88;;;5.40;99.90;;;;;;5052459;28;20548;-84
2023/01/09 05:56:18;;;;;;;18.85;11.60;;;5.10;99.90;;;;;;5054469;28;20044;-85
2023/01/09 05:58:43;;;;;;;21.83;12.27;;;5.20;99.90;;;;;;5047724;28;20041;-82
2023/01/09 06:01:09;;;;;;;22.50;13.70;;;5.30;99.90;;;;;;5051030;28;20041;-83
2023/01/09 06:03:34;;;;;;;23.90;13.23;;;5.20;99.90;;;;;;5054292;28;20410;-83
2023/01/09 06:06:00;;;;;;;22.58;13.27;;;5.30;99.90;;;;;;5054745;28;20120;-84
2023/01/09 06:08:25;;;;;;;22.33;14.75;;;5.30;99.90;;;;;;5055357;28;20044;-82
2023/01/09 06:10:51;;;;;;;24.38;14.55;;;5.30;99.90;;;;;;5055441;28;20484;-84
2023/01/09 06:13:16;;;;;;;26.50;15.20;;;5.30;99.90;;;;;;5055302;28;20044;-84
2023/01/09 06:15:42;;;;;;;22.95;14.00;;;5.40;99.90;;;;;;5055827;28;20041;-83
2023/01/09 06:18:08;;;;;;;22.83;12.80;;;5.40;99.90;;;;;;5038040;28;20041;-84
2023/01/09 06:20:34;;;;;;;20.88;13.30;;;5.40;99.90;;;;;;5055259;28;20055;-84
2023/01/09 06:22:59;;;;;;;22.05;12.93;;;5.40;99.90;;;;;;5054557;28;20037;-84
2023/01/09 06:25:25;;;;;;;29.67;13.55;;;5.80;99.90;;;;;;5036907;28;20033;-83
2023/01/09 06:27:51;;;;;;;19.92;13.30;;;5.40;99.90;;;;;;5036531;28;20041;-85
2023/01/09 06:30:17;;;;;;;19.73;12.65;;;5.40;99.90;;;;;;5051787;28;20045;-84
2023/01/09 06:32:43;;;;;;;20.92;13.57;;;5.40;99.90;;;;;;5055016;28;20037;-85
2023/01/09 06:35:09;;;;;;;19.92;12.82;;;5.40;99.90;;;;;;5059066;28;20421;-83
2023/01/09 06:37:35;;;;;;;20.95;11.85;;;5.40;99.90;;;;;;5041731;28;20053;-83
2023/01/09 06:40:00;;;;;;;23.95;13.00;;;5.40;99.90;;;;;;5059574;28;20119;-82
2023/01/09 06:42:26;;;;;;;20.30;12.43;;;5.40;99.90;;;;;;5042408;28;20037;-84
2023/01/09 06:44:51;;;;;;;20.95;12.32;;;5.40;99.90;;;;;;5058974;28;20047;-84
2023/01/09 06:47:17;;;;;;;18.40;12.20;;;5.50;99.90;;;;;;5056509;28;20061;-83
2023/01/09 06:49:42;;;;;;;21.63;12.55;;;5.40;99.90;;;;;;5058243;28;20072;-83
2023/01/09 06:52:08;;;;;;;18.77;12.45;;;5.40;99.90;;;;;;5045369;28;20037;-84
2023/01/09 06:54:33;;;;;;;20.67;13.90;;;5.40;99.90;;;;;;5042501;28;20048;-85
2023/01/09 06:56:59;;;;;;;24.08;12.82;;;5.40;99.90;;;;;;5058426;28;20033;-83
2023/01/09 06:59:25;;;;;;;23.38;12.88;;;5.40;99.90;;;;;;5055917;28;20128;-83
2023/01/09 07:01:51;;;;;;;21.23;12.35;;;5.40;99.90;;;;;;5038582;28;20095;-85
2023/01/09 07:04:16;;;;;;;19.50;11.55;;;5.40;99.90;;;;;;5022839;28;20475;-84
2023/01/09 07:06:42;;;;;;;21.98;12.77;;;5.30;99.90;;;;;;5058875;28;20029;-85
2023/01/09 07:09:12;;;;;;;19.52;11.75;;;5.30;99.90;;;;;;5057943;28;20140;-84
2023/01/09 07:11:40;;;;;;;16.65;11.00;;;5.30;99.90;;;;;;5059547;28;20514;-84
2023/01/09 07:14:06;;;;;;;16.98;10.85;;;5.30;99.90;;;;;;5058308;28;20033;-83
2023/01/09 07:16:32;;;;;;;16.95;11.40;;;5.30;99.90;;;;;;5057993;28;20582;-84
2023/01/09 07:18:58;;;;;;;15.80;10.52;;;5.40;99.90;;;;;;5056761;28;20072;-83
2023/01/09 07:21:23;;;;;;;17.55;11.07;;;5.30;99.90;;;;;;5055200;28;20040;-84
2023/01/09 07:23:49;;;;;;;18.23;10.60;;;5.30;99.90;;;;;;5057089;28;20049;-84
2023/01/09 07:26:14;;;;;;;19.10;11.35;;;5.30;99.90;;;;;;5058389;28;20033;-83
2023/01/09 07:28:43;;;;;;;15.73;10.43;;;5.30;99.90;;;;;;5056983;28;20037;-84
2023/01/09 07:31:08;;;;;;;12.63;10.05;;;5.30;99.90;;;;;;5060876;28;20041;-82
2023/01/09 07:33:34;;;;;;;18.70;11.15;;;4.80;99.90;;;;;;5055995;28;20039;-84
2023/01/09 07:36:00;;;;;;;20.38;10.93;;;5.20;99.90;;;;;;5057038;28;20391;-84
2023/01/09 07:38:25;;;;;;;19.08;10.70;;;5.20;99.90;;;;;;5057264;28;20044;-85
2023/01/09 07:40:51;;;;;;;16.92;9.90;;;5.20;99.90;;;;;;5056949;28;20106;-85
2023/01/09 07:43:17;;;;;;;15.93;9.57;;;5.20;99.90;;;;;;5056441;28;20059;-84
2023/01/09 07:45:42;;;;;;;15.88;9.55;;;5.20;99.90;;;;;;5055869;28;20052;-84
2023/01/09 07:48:08;;;;;;;17.45;9.88;;;5.10;99.90;;;;;;5055394;28;20041;-83
2023/01/09 07:50:33;;;;;;;14.98;8.85;;;5.10;99.90;;;;;;5048033;28;20033;-85
2023/01/09 07:52:59;;;;;;;14.80;8.68;;;5.10;99.90;;;;;;5055531;28;20045;-84
2023/01/09 07:55:24;;;;;;;11.20;7.90;;;5.10;99.90;;;;;;5037916;28;20033;-84
2023/01/09 07:57:51;;;;;;;10.57;7.88;;;5.00;99.90;;;;;;5055950;28;20044;-84
2023/01/09 08:00:19;;;;;;;14.68;8.48;;;5.00;99.90;;;;;;5054400;28;20055;-85
2023/01/09 08:02:49;;;;;;;11.15;7.40;;;5.00;99.90;;;;;;5053154;28;20053;-85
2023/01/09 08:05:15;;;;;;;12.07;7.40;;;4.90;99.90;;;;;;5055323;28;20415;-84
2023/01/09 08:07:41;;;;;;;13.20;7.97;;;4.90;99.90;;;;;;5054191;28;20041;-85
2023/01/09 08:10:09;;;;;;;12.88;7.57;;;4.80;99.90;;;;;;5055602;28;20032;-84
2023/01/09 08:12:34;;;;;;;10.35;6.75;;;4.80;99.90;;;;;;5056043;28;20037;-84
2023/01/09 08:15:00;;;;;;;14.63;8.13;;;4.80;99.90;;;;;;5055087;28;20040;-84
2023/01/09 08:17:26;;;;;;;11.45;7.03;;;4.80;99.90;;;;;;5054794;28;20041;-85
2023/01/09 08:19:51;;;;;;;10.70;7.13;;;4.80;99.90;;;;;;5054668;28;20490;-84
2023/01/09 08:22:17;;;;;;;13.40;7.60;;;4.80;99.90;;;;;;5055116;28;20048;-83
2023/01/09 08:24:42;;;;;;;14.82;7.35;;;4.90;99.90;;;;;;5055023;28;20138;-85
2023/01/09 08:27:08;;;;;;;15.30;7.13;;;4.90;99.90;;;;;;5054861;28;20067;-84
2023/01/09 08:29:33;;;;;;;15.20;7.18;;;4.90;99.90;;;;;;5055431;28;20229;-84
2023/01/09 08:31:59;;;;;;;12.32;7.15;;;5.00;99.90;;;;;;5054990;28;20051;-85
2023/01/09 08:34:24;;;;;;;11.05;6.35;;;5.00;99.90;;;;;;5054858;28;20079;-84
2023/01/09 08:36:52;;;;;;;11.63;6.72;;;5.00;99.90;;;;;;5056542;28;20052;-84
2023/01/09 08:39:17;;;;;;;12.32;7.22;;;5.10;99.90;;;;;;5054184;28;20525;-85
2023/01/09 08:47:17;;;;;;;13.00;6.75;;;5.20;99.90;;;;;;5047022;28;20072;-84
2023/01/09 08:49:42;;;;;;;11.93;6.40;;;5.20;99.90;;;;;;5036114;28;20045;-84
2023/01/09 08:52:08;;;;;;;9.88;6.32;;;5.30;99.90;;;;;;5055278;28;20092;-84
2023/01/09 08:54:37;;;;;;;12.55;5.80;;;5.30;99.90;;;;;;5054894;28;20072;-84
2023/01/09 08:57:03;;;;;;;13.70;7.00;;;5.30;99.90;;;;;;5054561;28;20041;-83
2023/01/09 08:59:28;;;;;;;11.00;6.15;;;5.30;99.90;;;;;;5038005;28;20387;-84
2023/01/09 09:01:54;;;;;;;10.82;6.13;;;5.40;99.90;;;;;;5044315;28;20440;-85
2023/01/09 09:04:19;;;;;;;10.93;5.47;;;5.40;99.90;;;;;;5035984;28;20503;-84
2023/01/09 09:06:45;;;;;;;14.00;6.00;;;5.40;99.90;;;;;;5017964;28;20377;-84
2023/01/09 09:09:11;;;;;;;8.65;5.63;;;5.50;99.90;;;;;;5034455;28;20045;-84
2023/01/09 09:11:36;;;;;;;11.90;5.40;;;5.50;99.90;;;;;;5036107;28;20041;-85
2023/01/09 09:15:11;;;;;;;9.40;5.20;;;5.50;99.90;;;;;;5033688;28;20045;-84
2023/01/09 09:16:50;;;;;;;10.07;5.13;;;5.50;99.90;;;;;;5043673;28;20524;-84
2023/01/09 09:19:16;;;;;;;10.35;4.80;;;5.60;99.90;;;;;;5053871;28;20037;-85
2023/01/09 09:21:42;;;;;;;8.70;4.75;;;5.60;99.90;;;;;;5053665;28;20037;-84
2023/01/09 09:24:08;;;;;;;9.52;4.63;;;5.60;99.90;;;;;;5053619;28;20044;-85
2023/01/09 09:26:33;;;;;;;8.35;4.43;;;5.60;99.90;;;;;;5053473;28;20079;-84
2023/01/09 09:28:59;;;;;;;11.27;5.20;;;5.70;99.90;;;;;;5047265;28;20558;-84
2023/01/09 09:31:24;;;;;;;6.78;4.60;;;5.70;99.90;;;;;;5043787;28;20033;-85
2023/01/09 09:33:50;;;;;;;11.20;4.68;;;5.70;99.90;;;;;;5024202;28;20072;-85
2023/01/09 09:36:15;;;;;;;8.15;4.50;;;5.60;99.90;;;;;;5053327;28;20069;-85
2023/01/09 09:38:41;;;;;;;7.68;4.35;;;5.70;99.90;;;;;;5053911;28;20036;-85
2023/01/09 09:44:41;;;;;;;6.88;4.53;;;5.70;99.90;;;;;;5053647;28;20037;-84
2023/01/09 09:44:42;;;;;;;8.63;3.83;;;5.70;99.90;;;;;;5054906;28;20059;-84
2023/01/09 09:47:42;;;;;;;8.68;4.00;;;5.70;99.90;;;;;;5031179;28;20052;-84
2023/01/09 09:50:39;;;;;;;6.63;3.70;;;5.80;99.90;;;;;;5044326;28;20515;-84
2023/01/09 09:53:23;;;;;;;7.32;3.78;;;5.80;99.90;;;;;;5019373;28;20040;-83
2023/01/09 09:55:49;;;;;;;;;;;5.90;99.90;;;;;;5045453;28;20057;-84
2023/01/09 09:58:21;;;;;;;8.13;4.30;;;5.90;99.90;;;;;;5043855;28;19925;-84
2023/01/09 10:00:51;;;;;;;8.13;3.78;;;6.00;99.90;;;;;;5040733;28;20410;-85
2023/01/09 10:03:30;;;;;;;9.10;4.30;;;6.00;99.90;;;;;;5037677;28;20096;-84
2023/01/09 10:05:57;;;;;;;7.47;4.03;;;6.00;99.90;;;;;;5044373;28;20051;-85
2023/01/09 10:08:35;;;;;;;10.82;4.05;;;6.10;99.90;;;;;;5040927;28;20037;-85
2023/01/09 10:11:01;;;;;;;7.10;4.05;;;6.10;99.90;;;;;;5036160;28;20563;-85
2023/01/09 10:16:28;;;;;;;;;;;6.20;99.90;;;;;;5049811;28;20415;-84
2023/01/09 10:19:24;;;;;;;5.82;3.78;;;6.20;99.90;;;;;;5036874;28;19921;-85
2023/01/09 10:22:09;;;;;;;7.55;3.42;;;6.20;99.90;;;;;;5051409;28;20045;-85
2023/01/09 10:24:42;;;;;;;;;;;6.20;99.90;;;;;;5024329;28;20064;-85
2023/01/09 10:27:28;;;;;;;8.35;4.22;;;6.30;99.90;;;;;;5048884;28;20392;-86
2023/01/09 10:30:10;;;;;;;8.27;3.80;;;6.30;99.90;;;;;;5041504;28;20046;-85
2023/01/09 10:33:16;;;;;;;8.35;3.53;;;6.30;99.90;;;;;;5032310;28;20069;-86
2023/01/09 10:36:00;;;;;;;8.57;3.97;;;6.40;99.90;;;;;;5029661;28;20468;-85
2023/01/09 10:38:32;;;;;;;7.15;3.85;;;6.40;99.90;;;;;;5022092;28;20528;-85
2023/01/09 10:41:19;;;;;;;7.00;4.40;;;6.40;99.90;;;;;;5040628;28;20049;-85
2023/01/09 10:43:55;;;;;;;6.93;3.80;;;6.40;99.90;;;;;;5049524;28;20456;-86
2023/01/09 10:46:34;;;;;;;4.88;3.70;;;6.40;99.90;;;;;;5038468;28;20447;-85
2023/01/09 10:49:04;;;;;;;6.68;3.63;;;6.50;99.90;;;;;;5013941;28;20117;-85
2023/01/09 10:51:57;;;;;;;10.52;3.75;;;6.50;99.90;;;;;;5030297;28;20041;-85
2023/01/09 10:54:23;;;;;;;8.57;4.00;;;6.50;99.90;;;;;;5019186;28;20052;-85
2023/01/09 10:57:11;;;;;;;9.20;4.28;;;6.60;99.90;;;;;;5028252;28;20037;-85
2023/01/09 10:59:39;;;;;;;9.30;4.30;;;6.60;99.90;;;;;;5037608;28;20056;-85
2023/01/09 11:02:11;;;;;;;10.73;3.80;;;6.60;99.90;;;;;;5030200;28;20052;-85
2023/01/09 11:04:38;;;;;;;8.30;3.97;;;6.60;99.90;;;;;;5031831;28;20045;-85
2023/01/09 11:07:17;;;;;;;6.72;3.63;;;6.60;99.90;;;;;;5040230;28;20033;-85
2023/01/09 11:10:00;;;;;;;6.20;3.65;;;6.60;99.90;;;;;;5048590;28;20445;-85
2023/01/09 11:12:31;;;;;;;6.35;3.75;;;6.60;99.90;;;;;;5050574;28;20047;-86
2023/01/09 11:15:18;;;;;;;7.70;3.97;;;6.60;99.90;;;;;;5050824;28;20068;-85
2023/01/09 11:17:44;;;;;;;5.78;4.00;;;6.60;99.90;;;;;;5050042;28;20045;-86
2023/01/09 11:20:17;;;;;;;10.32;4.68;;;6.70;99.90;;;;;;5051489;28;20080;-86
2023/01/09 11:22:46;;;;;;;9.98;4.10;;;6.60;99.90;;;;;;5053374;28;20047;-85
2023/01/09 11:25:15;;;;;;;7.20;3.67;;;6.60;99.90;;;;;;5049738;28;20120;-85
2023/01/09 11:27:41;;;;;;;9.27;4.32;;;6.50;99.90;;;;;;5030897;28;20430;-85
2023/01/09 11:30:25;;;;;;;7.43;3.55;;;6.60;99.90;;;;;;5035652;28;20041;-85
2023/01/09 11:32:51;;;;;;;8.38;3.55;;;6.60;99.90;;;;;;5027375;28;20132;-85
2023/01/09 11:35:20;;;;;;;8.25;3.92;;;6.50;99.90;;;;;;5038707;28;20072;-85
2023/01/09 11:37:49;;;;;;;7.50;3.80;;;6.50;99.90;;;;;;5039681;28;20033;-85
2023/01/09 11:40:20;;;;;;;10.05;4.20;;;6.50;99.90;;;;;;5046137;28;20030;-85
2023/01/09 11:43:13;;;;;;;7.15;3.83;;;6.50;99.90;;;;;;5028973;28;20045;-84
2023/01/09 11:45:47;;;;;;;8.00;3.83;;;6.50;99.90;;;;;;5053539;28;20102;-85
2023/01/09 11:48:25;;;;;;;6.53;4.00;;;6.50;99.90;;;;;;5053088;28;20037;-86
2023/01/09 11:50:56;;;;;;;6.60;4.40;;;6.50;99.90;;;;;;5049301;28;20044;-84
2023/01/09 11:53:23;;;;;;;10.75;4.88;;;6.50;99.90;;;;;;5060875;28;20044;-85
2023/01/09 11:56:00;;;;;;;10.18;4.53;;;6.50;99.90;;;;;;5042410;28;20067;-85
2023/01/09 11:58:32;;;;;;;8.68;4.60;;;6.50;99.90;;;;;;5039659;28;20040;-85
2023/01/09 12:01:22;;;;;;;9.63;4.63;;;6.50;99.90;;;;;;5058963;28;20056;-85
2023/01/09 12:04:08;;;;;;;6.68;4.40;;;6.50;99.90;;;;;;5058214;28;20081;-86
2023/01/09 12:06:43;;;;;;;7.50;4.47;;;6.50;99.90;;;;;;5049956;28;20136;-85
2023/01/09 12:09:39;;;;;;;8.32;4.60;;;6.60;99.90;;;;;;5053323;28;20494;-85
2023/01/09 12:12:21;;;;;;;8.98;4.32;;;6.50;99.90;;;;;;5046205;28;20533;-86
2023/01/09 12:15:05;;;;;;;9.80;5.00;;;6.60;99.90;;;;;;5056769;28;20032;-85
2023/01/09 12:17:55;;;;;;;9.20;4.88;;;6.60;99.90;;;;;;5047420;28;20073;-86
2023/01/09 12:20:38;;;;;;;8.75;4.95;;;6.60;99.90;;;;;;5062572;28;20037;-85
2023/01/09 12:23:41;;;;;;;7.72;5.20;;;6.60;99.90;;;;;;5051153;28;20172;-85
2023/01/09 12:26:45;;;;;;;10.25;5.30;;;6.60;99.90;;;;;;5054848;28;20064;-85
2023/01/09 12:29:16;;;;;;;8.95;5.45;;;6.70;99.90;;;;;;5057734;28;20041;-85
2023/01/09 12:31:54;;;;;;;9.70;5.22;;;6.70;99.90;;;;;;5025038;28;20037;-85
2023/01/09 12:34:22;;;;;;;11.15;5.63;;;6.70;99.90;;;;;;5054544;28;20475;-85
2023/01/09 12:37:08;;;;;;;14.20;6.97;;;6.70;99.90;;;;;;5061182;28;20457;-84
2023/01/09 12:39:49;;;;;;;10.00;5.55;;;6.70;99.90;;;;;;5052257;28;20072;-86
2023/01/09 12:42:30;;;;;;;8.82;5.45;;;6.80;99.90;;;;;;5035668;28;20060;-85
2023/01/09 12:45:16;;;;;;;14.23;5.75;;;6.80;99.90;;;;;;5035806;28;20099;-85
2023/01/09 12:47:47;;;;;;;10.57;6.15;;;6.70;99.90;;;;;;5052349;28;20041;-85
2023/01/09 12:50:34;;;;;;;11.80;6.50;;;6.80;99.90;;;;;;5042870;28;20061;-86
2023/01/09 12:53:05;;;;;;;13.32;6.60;;;6.80;99.90;;;;;;5034176;28;20376;-84
2023/01/09 12:55:39;;;;;;;10.35;6.10;;;6.80;99.90;;;;;;5033532;28;20079;-85
2023/01/09 12:58:20;;;;;;;14.00;6.45;;;6.90;99.90;;;;;;5038090;28;20116;-85
2023/01/09 13:00:50;;;;;;;11.88;7.72;;;6.80;99.90;;;;;;5039623;28;20045;-85
2023/01/09 13:03:40;;;;;;;14.85;6.82;;;6.80;99.90;;;;;;5032185;28;20193;-85
2023/01/09 13:06:12;;;;;;;13.82;6.70;;;6.80;99.90;;;;;;5034784;28;20462;-86
2023/01/09 13:08:41;;;;;;;10.00;7.03;;;6.80;99.90;;;;;;5049182;28;20037;-86
2023/01/09 13:11:22;;;;;;;9.80;6.88;;;6.80;99.90;;;;;;5051628;28;20072;-85
2023/01/09 13:13:57;;;;;;;13.68;7.40;;;6.80;99.90;;;;;;5043615;28;20052;-84
2023/01/09 13:16:30;;;;;;;11.95;7.18;;;6.80;99.90;;;;;;5038349;28;20056;-84
2023/01/09 13:19:04;;;;;;;;;;;6.90;99.90;;;;;;5050536;28;20075;-85
2023/01/09 13:21:30;;;;;;;11.60;7.67;;;6.80;99.90;;;;;;5050765;28;19916;-85